METAR Data
IDs: Format: Raw Decoded Include TAF

Data at: 0446 UTC 26 Sep 2018

KLNP 260440Z AUTO 20007KT 10SM SCT075 BKN110 21/19 A3018 RMK AO2 LTG DSNT W
KLNP 260419Z AUTO 21006KT 10SM VCTS BKN120 21/18 A3019 RMK AO2 LTG DSNT W
KLNP 260400Z AUTO 19005KT 10SM BKN120 21/19 A3019 RMK AO2
KLNP 260339Z AUTO 19006KT 10SM BKN120 21/19 A3020 RMK AO2 LTG DSNT W
KLNP 260259Z AUTO 10SM SCT100 22/19 A3020 RMK AO2
KLNP 260239Z AUTO 19005KT 10SM SCT100 22/19 A3020 RMK AO2
KLNP 260219Z AUTO 18007KT 10SM CLR 22/19 A3019 RMK AO2
KLNP 260201Z AUTO 16007KT 10SM CLR 22/19 A3019 RMK AO2
KLNP 260118Z AUTO 17007KT 10SM OVC095 22/19 A3020 RMK AO2 LTG DSNT SW
KLNP 260100Z AUTO 17005KT 10SM SCT095 22/19 A3020 RMK AO2 LTG DSNT SW
KLNP 260038Z AUTO 17006KT 10SM CLR 22/19 A3020 RMK AO2
KLNP 260020Z AUTO 16005KT 10SM CLR 22/19 A3019 RMK AO2 LTG DSNT W AND NW
KLNP 252359Z AUTO 16005KT 10SM CLR 22/19 A3018 RMK AO2 LTG DSNT W
KLNP 252340Z AUTO 17003KT 10SM SCT090 22/21 A3019 RMK AO2 LTG DSNT SW THRU NW
KLNP 252318Z AUTO 00000KT 10SM SCT042 BKN090 22/20 A3019 RMK AO2
KLNP 252259Z AUTO 00000KT 10SM CLR 23/20 A3019 RMK AO2
KLNP 252240Z AUTO 16004KT 10SM SCT080 23/20 A3018 RMK AO2 LTG DSNT NW
KLNP 252219Z AUTO 16006KT 10SM CLR 23/21 A3018 RMK AO2
KLNP 252139Z AUTO 17005KT 10SM BKN041 BKN120 24/21 A3018 RMK AO2 LTG DSNT W AND NW
KLNP 252118Z AUTO 17005KT 10SM SCT039 BKN095 BKN120 23/21 A3019 RMK AO2 LTG DSNT W
KLNP 252040Z AUTO 16005KT 10SM SCT013 SCT037 OVC095 23/21 A3019 RMK AO2
KLNP 252018Z AUTO 16006KT 10SM SCT037 OVC095 24/23 A3021 RMK AO2
KLNP 251959Z AUTO 16004KT 10SM OVC095 23/23 A3022 RMK AO2 LTG DSNT W AND NW
KLNP 251938Z AUTO 17005KT 10SM SCT036 OVC095 22/22 A3023 RMK AO2
KLNP 251919Z AUTO 18004KT 10SM -RA SCT008 BKN085 OVC090 21/21 A3024 RMK AO2
KLNP 251840Z AUTO 15006KT 10SM SCT008 SCT031 OVC070 21/21 A3024 RMK AO2 P0001
KLNP 251818Z AUTO 17005KT 10SM -RA SCT010 BKN070 OVC100 21/21 A3025 RMK AO2 P0001
KLNP 251758Z AUTO 17005KT 10SM -RA SCT012 SCT042 OVC100 21/21 A3026 RMK AO2 P0001
KLNP 251738Z AUTO 18006KT 10SM BKN012 BKN034 OVC090 22/21 A3027 RMK AO2 LTG DSNT W
KLNP 251658Z AUTO 20007KT 10SM -RA SCT050 SCT070 OVC085 21/19 A3028 RMK AO2
KLNP 251639Z AUTO 19009G17KT 10SM -RA SCT050 BKN065 OVC085 21/19 A3028 RMK AO2
KLNP 251618Z AUTO 21007KT 10SM BKN075 OVC085 21/19 A3027 RMK AO2
KLNP 251600Z AUTO 19009G15KT 10SM BKN070 OVC085 21/18 A3027 RMK AO2 LTG DSNT W
KLNP 251519Z AUTO 19007KT 10SM OVC065 22/19 A3028 RMK AO2
KLNP 251438Z AUTO 19009KT 10SM BKN065 BKN080 22/19 A3028 RMK AO2
KLNP 251418Z AUTO 19008KT 10SM SCT120 22/19 A3028 RMK AO2
KLNP 251339Z AUTO 17007KT 10SM SCT110 21/21 A3027 RMK AO2 LTG DSNT NW
KLNP 251319Z AUTO 18007KT 10SM SCT110 20/20 A3027 RMK AO2
KLNP 251259Z AUTO 00000KT 10SM SCT110 19/19 A3027 RMK AO2
KLNP 251240Z AUTO 20005KT 10SM SCT026 SCT100 19/19 A3027 RMK AO2
KLNP 251218Z AUTO 22006KT 10SM SCT026 SCT032 BKN047 19/19 A3027 RMK AO2
KLNP 251140Z AUTO 17006KT 10SM OVC110 19/19 A3025 RMK AO2
KLNP 251119Z AUTO 18004KT 10SM SCT040 SCT046 OVC110 19/19 A3025 RMK AO2
KLNP 251100Z AUTO 20005KT 10SM OVC110 19/19 A3025 RMK AO2 LTG DSNT NW
KLNP 251039Z AUTO 18006KT 10SM SCT100 19/19 A3023 RMK AO2
KLNP 251018Z AUTO 18007KT 10SM CLR 19/19 A3023 RMK AO2
KLNP 251000Z AUTO 18008KT 10SM CLR 18/18 A3023 RMK AO2
KLNP 250940Z AUTO 20007KT 10SM SCT120 18/18 A3023 RMK AO2 LTG DSNT W AND NW
KLNP 250918Z AUTO 19005KT 10SM OVC120 18/18 A3023 RMK AO2 LTG DSNT NW
KLNP 250839Z AUTO 17010G15KT 10SM OVC120 18/18 A3021 RMK AO2 LTG DSNT NW
KLNP 250818Z AUTO 18008KT 10SM OVC120 18/18 A3022 RMK AO2
KLNP 250759Z AUTO 18011G16KT 10SM -DZ OVC120 18/18 A3022 RMK AO2
KLNP 250718Z AUTO 17010G16KT 10SM RA BKN120 18/18 A3023 RMK AO2
KLNP 250659Z AUTO 17011G16KT 10SM SCT055 OVC120 18/18 A3025 RMK AO2
KLNP 250639Z AUTO 17009KT 10SM BKN049 BKN080 OVC110 18/18 A3025 RMK AO2
KLNP 250619Z AUTO 17008KT 10SM RA SCT047 BKN075 OVC110 18/18 A3025 RMK AO2
KLNP 250600Z AUTO 17011KT 10SM -RA SCT047 SCT075 OVC110 18/18 A3025 RMK AO2 LTG DSNT W
KLNP 250519Z AUTO 17013G18KT 10SM -RA SCT024 SCT050 OVC095 19/17 A3025 RMK AO2
KLNP 250500Z AUTO 17012G18KT 10SM RA SCT022 BKN095 OVC110 19/17 A3025 RMK AO2
KLNP 250439Z AUTO 17010G18KT 10SM SCT070 OVC110 19/16 A3025 RMK AO2 P0001
KLNP 250418Z AUTO 17011KT 10SM BKN095 OVC110 19/16 A3025 RMK AO2
KLNP 250359Z AUTO 17009G15KT 10SM OVC100 19/17 A3025 RMK AO2
KLNP 250338Z AUTO 17007KT 10SM SCT090 OVC110 19/17 A3024 RMK AO2
KLNP 250320Z AUTO 17006KT 10SM SCT095 OVC120 19/17 A3025 RMK AO2
KLNP 250259Z AUTO 16005KT 10SM SCT075 SCT095 BKN110 19/17 A3024 RMK AO2
KLNP 250239Z AUTO 16005KT 10SM SCT060 SCT080 BKN110 19/17 A3024 RMK AO2
KLNP 250159Z AUTO 17005KT 10SM SCT065 SCT090 BKN120 19/17 A3024 RMK AO2
KLNP 250138Z AUTO 17008KT 10SM SCT065 BKN110 19/17 A3024 RMK AO2
KLNP 250119Z AUTO 17008KT 10SM SCT065 BKN110 20/17 A3023 RMK AO2
KLNP 250058Z AUTO 16009G14KT 10SM SCT060 BKN120 19/17 A3023 RMK AO2
KLNP 250039Z AUTO 17008KT 10SM -RA OVC060 19/17 A3023 RMK AO2
KLNP 250019Z AUTO 16007G14KT 10SM DZ BKN060 BKN080 BKN120 20/17 A3022 RMK AO2
KLNP 242359Z AUTO 17011G15KT 10SM -RA SCT070 SCT085 BKN110 20/17 A3022 RMK AO2
KLNP 242339Z AUTO 17006KT 10SM BKN055 OVC110 20/18 A3022 RMK AO2
KLNP 242319Z AUTO 18006KT 10SM BKN055 OVC100 20/18 A3021 RMK AO2
KLNP 242259Z AUTO 17006KT 10SM BKN055 OVC100 20/18 A3021 RMK AO2
KLNP 242239Z AUTO 16004KT 10SM BKN060 BKN075 BKN100 20/20 A3021 RMK AO2
KLNP 242219Z AUTO 17004KT 10SM SCT060 SCT090 BKN110 21/21 A3021 RMK AO2
KLNP 242158Z AUTO 16003KT 10SM SCT060 BKN070 OVC110 20/20 A3021 RMK AO2
KLNP 242139Z AUTO 16003KT 10SM -DZ SCT070 OVC100 20/20 A3021 RMK AO2
KLNP 242119Z AUTO 00000KT 10SM -RA SCT085 OVC110 21/21 A3022 RMK AO2
KLNP 242059Z AUTO 16003KT 10SM -RA SCT080 OVC110 21/19 A3022 RMK AO2
KLNP 242039Z AUTO 00000KT 10SM -RA SCT070 SCT080 OVC110 21/18 A3022 RMK AO2
KLNP 242018Z AUTO 17003KT 10SM SCT035 BKN085 OVC090 21/18 A3022 RMK AO2
KLNP 241959Z AUTO 17003KT 10SM RA OVC070 21/18 A3022 RMK AO2
KLNP 241938Z AUTO 17007KT 10SM BKN070 OVC100 21/18 A3022 RMK AO2
KLNP 241919Z AUTO 17005KT 10SM -RA SCT026 BKN050 OVC095 21/19 A3023 RMK AO2
KLNP 241858Z AUTO 18005KT 10SM -RA SCT029 BKN040 OVC100 21/19 A3023 RMK AO2
KLNP 241838Z AUTO 19004KT 10SM SCT028 SCT038 OVC110 22/19 A3023 RMK AO2
KLNP 241819Z AUTO 18003KT 10SM -RA OVC110 22/18 A3023 RMK AO2
KLNP 241758Z AUTO 15004KT 10SM SCT095 BKN110 22/18 A3024 RMK AO2
KLNP 241739Z AUTO 17005KT 10SM SCT100 SCT120 22/18 A3026 RMK AO2
KLNP 241721Z AUTO 15004KT 10SM SCT020 22/18 A3026 RMK AO2
KLNP 241659Z AUTO 16009KT 10SM SCT022 BKN120 22/18 A3027 RMK AO2